Aviation Digital Data Service (ADDS)

Output produced by METARs form (1917 UTC 23 July 2016)
found at http://aviationweather.gov/adds/metars/
 
KBPT 231836Z 2319/2418 20006KT P6SM VCTS SCT035CB SCT250 
     TEMPO 2319/2321 VRB15G25KT 3SM TSRA BKN030CB 
     FM240100 20003KT P6SM SCT250 
     FM241500 VRB05KT P6SM VCSH SCT025